sensor_id;sensor_type;location;lat;lon;timestamp;P1;durP1;ratioP1;P2;durP2;ratioP2
20000;SDS011;10161;41.188;-8.642;2023-07-31T00:00:30;4.70;;;2.53;;
20000;SDS011;10161;41.188;-8.642;2023-07-31T00:02:58;2.93;;;2.30;;
20000;SDS011;10161;41.188;-8.642;2023-07-31T00:05:27;3.07;;;2.23;;
20000;SDS011;10161;41.188;-8.642;2023-07-31T00:07:54;2.50;;;2.13;;
20000;SDS011;10161;41.188;-8.642;2023-07-31T00:10:22;3.53;;;2.57;;
20000;SDS011;10161;41.188;-8.642;2023-07-31T00:12:49;4.67;;;2.30;;
20000;SDS011;10161;41.188;-8.642;2023-07-31T00:15:17;3.03;;;2.30;;
20000;SDS011;10161;41.188;-8.642;2023-07-31T00:17:44;4.47;;;2.77;;
20000;SDS011;10161;41.188;-8.642;2023-07-31T00:20:11;2.70;;;2.33;;
20000;SDS011;10161;41.188;-8.642;2023-07-31T00:22:39;2.20;;;1.97;;
20000;SDS011;10161;41.188;-8.642;2023-07-31T00:25:07;3.63;;;2.03;;
20000;SDS011;10161;41.188;-8.642;2023-07-31T00:27:34;5.60;;;2.40;;
20000;SDS011;10161;41.188;-8.642;2023-07-31T00:30:02;3.70;;;2.30;;
20000;SDS011;10161;41.188;-8.642;2023-07-31T00:32:30;3.93;;;2.23;;
20000;SDS011;10161;41.188;-8.642;2023-07-31T00:34:57;2.53;;;2.07;;
20000;SDS011;10161;41.188;-8.642;2023-07-31T00:37:24;3.50;;;2.30;;
20000;SDS011;10161;41.188;-8.642;2023-07-31T00:39:53;2.70;;;2.43;;
20000;SDS011;10161;41.188;-8.642;2023-07-31T00:42:20;4.23;;;2.13;;
20000;SDS011;10161;41.188;-8.642;2023-07-31T00:44:47;2.90;;;2.37;;
20000;SDS011;10161;41.188;-8.642;2023-07-31T00:47:14;2.10;;;1.90;;
20000;SDS011;10161;41.188;-8.642;2023-07-31T00:49:42;3.13;;;2.23;;
20000;SDS011;10161;41.188;-8.642;2023-07-31T00:52:09;3.20;;;2.30;;
20000;SDS011;10161;41.188;-8.642;2023-07-31T00:54:35;2.50;;;1.83;;
20000;SDS011;10161;41.188;-8.642;2023-07-31T00:57:04;2.80;;;2.10;;
20000;SDS011;10161;41.188;-8.642;2023-07-31T00:59:32;2.73;;;2.13;;
20000;SDS011;10161;41.188;-8.642;2023-07-31T01:02:00;2.50;;;2.10;;
20000;SDS011;10161;41.188;-8.642;2023-07-31T01:04:27;3.07;;;2.50;;
20000;SDS011;10161;41.188;-8.642;2023-07-31T01:06:56;3.27;;;2.03;;
20000;SDS011;10161;41.188;-8.642;2023-07-31T01:09:29;3.97;;;2.20;;
20000;SDS011;10161;41.188;-8.642;2023-07-31T01:12:02;2.33;;;2.13;;
20000;SDS011;10161;41.188;-8.642;2023-07-31T01:14:31;3.13;;;2.03;;
20000;SDS011;10161;41.188;-8.642;2023-07-31T01:16:59;2.83;;;2.40;;
20000;SDS011;10161;41.188;-8.642;2023-07-31T01:19:26;3.17;;;2.37;;
20000;SDS011;10161;41.188;-8.642;2023-07-31T01:22:02;2.57;;;2.00;;
20000;SDS011;10161;41.188;-8.642;2023-07-31T01:24:41;5.27;;;2.53;;
20000;SDS011;10161;41.188;-8.642;2023-07-31T01:27:21;2.73;;;2.47;;
20000;SDS011;10161;41.188;-8.642;2023-07-31T01:29:52;3.53;;;2.40;;
20000;SDS011;10161;41.188;-8.642;2023-07-31T01:32:22;3.23;;;2.07;;
20000;SDS011;10161;41.188;-8.642;2023-07-31T01:34:50;3.80;;;2.23;;
20000;SDS011;10161;41.188;-8.642;2023-07-31T01:37:17;3.77;;;2.30;;
20000;SDS011;10161;41.188;-8.642;2023-07-31T01:39:45;2.20;;;2.00;;
20000;SDS011;10161;41.188;-8.642;2023-07-31T01:42:11;3.13;;;2.50;;
20000;SDS011;10161;41.188;-8.642;2023-07-31T01:44:41;3.07;;;2.50;;
20000;SDS011;10161;41.188;-8.642;2023-07-31T01:47:08;3.87;;;2.43;;
20000;SDS011;10161;41.188;-8.642;2023-07-31T01:49:35;2.43;;;2.03;;
20000;SDS011;10161;41.188;-8.642;2023-07-31T01:52:02;4.33;;;2.80;;
20000;SDS011;10161;41.188;-8.642;2023-07-31T01:54:29;2.90;;;2.60;;
20000;SDS011;10161;41.188;-8.642;2023-07-31T01:56:56;3.30;;;2.50;;
20000;SDS011;10161;41.188;-8.642;2023-07-31T01:59:23;3.07;;;2.50;;
20000;SDS011;10161;41.188;-8.642;2023-07-31T02:01:52;3.13;;;2.50;;
20000;SDS011;10161;41.188;-8.642;2023-07-31T02:04:19;3.80;;;2.30;;
20000;SDS011;10161;41.188;-8.642;2023-07-31T02:06:46;3.10;;;2.27;;
20000;SDS011;10161;41.188;-8.642;2023-07-31T02:09:13;3.03;;;2.43;;
20000;SDS011;10161;41.188;-8.642;2023-07-31T02:11:41;2.77;;;2.17;;
20000;SDS011;10161;41.188;-8.642;2023-07-31T02:14:08;2.40;;;2.20;;
20000;SDS011;10161;41.188;-8.642;2023-07-31T02:16:35;3.70;;;2.57;;
20000;SDS011;10161;41.188;-8.642;2023-07-31T02:19:04;2.80;;;2.10;;
20000;SDS011;10161;41.188;-8.642;2023-07-31T02:21:31;3.77;;;1.90;;
20000;SDS011;10161;41.188;-8.642;2023-07-31T02:23:58;5.43;;;2.40;;
20000;SDS011;10161;41.188;-8.642;2023-07-31T02:26:25;2.30;;;2.10;;
20000;SDS011;10161;41.188;-8.642;2023-07-31T02:28:52;3.40;;;2.50;;
20000;SDS011;10161;41.188;-8.642;2023-07-31T02:31:19;3.73;;;2.50;;
20000;SDS011;10161;41.188;-8.642;2023-07-31T02:33:46;3.03;;;2.00;;
20000;SDS011;10161;41.188;-8.642;2023-07-31T02:36:15;4.43;;;2.30;;
20000;SDS011;10161;41.188;-8.642;2023-07-31T02:38:42;2.90;;;2.20;;
20000;SDS011;10161;41.188;-8.642;2023-07-31T02:41:11;4.07;;;2.33;;
20000;SDS011;10161;41.188;-8.642;2023-07-31T02:43:37;3.23;;;2.40;;
20000;SDS011;10161;41.188;-8.642;2023-07-31T02:46:04;2.80;;;2.27;;
20000;SDS011;10161;41.188;-8.642;2023-07-31T02:48:32;2.67;;;2.27;;
20000;SDS011;10161;41.188;-8.642;2023-07-31T02:50:59;2.50;;;2.20;;
20000;SDS011;10161;41.188;-8.642;2023-07-31T02:53:27;4.10;;;2.40;;
20000;SDS011;10161;41.188;-8.642;2023-07-31T02:55:54;3.60;;;2.23;;
20000;SDS011;10161;41.188;-8.642;2023-07-31T02:58:21;3.57;;;2.43;;
20000;SDS011;10161;41.188;-8.642;2023-07-31T03:00:48;5.10;;;2.77;;
20000;SDS011;10161;41.188;-8.642;2023-07-31T03:03:15;2.77;;;2.17;;
20000;SDS011;10161;41.188;-8.642;2023-07-31T03:05:42;4.13;;;2.10;;
20000;SDS011;10161;41.188;-8.642;2023-07-31T03:08:09;2.80;;;2.20;;
20000;SDS011;10161;41.188;-8.642;2023-07-31T03:10:37;3.07;;;2.17;;
20000;SDS011;10161;41.188;-8.642;2023-07-31T03:13:04;3.30;;;2.20;;
20000;SDS011;10161;41.188;-8.642;2023-07-31T03:15:31;2.33;;;2.13;;
20000;SDS011;10161;41.188;-8.642;2023-07-31T03:17:58;2.80;;;2.30;;
20000;SDS011;10161;41.188;-8.642;2023-07-31T03:20:26;2.80;;;2.27;;
20000;SDS011;10161;41.188;-8.642;2023-07-31T03:22:53;3.63;;;2.57;;
20000;SDS011;10161;41.188;-8.642;2023-07-31T03:25:21;3.47;;;2.10;;
20000;SDS011;10161;41.188;-8.642;2023-07-31T03:27:50;4.73;;;2.47;;
20000;SDS011;10161;41.188;-8.642;2023-07-31T03:30:16;3.93;;;2.57;;
20000;SDS011;10161;41.188;-8.642;2023-07-31T03:32:43;2.63;;;1.90;;
20000;SDS011;10161;41.188;-8.642;2023-07-31T03:35:11;3.03;;;2.20;;
20000;SDS011;10161;41.188;-8.642;2023-07-31T03:37:38;3.17;;;2.20;;
20000;SDS011;10161;41.188;-8.642;2023-07-31T03:40:05;2.30;;;2.10;;
20000;SDS011;10161;41.188;-8.642;2023-07-31T03:42:33;3.27;;;2.50;;
20000;SDS011;10161;41.188;-8.642;2023-07-31T03:45:03;5.13;;;2.50;;
20000;SDS011;10161;41.188;-8.642;2023-07-31T03:47:30;3.60;;;2.70;;
20000;SDS011;10161;41.188;-8.642;2023-07-31T03:49:57;3.80;;;2.70;;
20000;SDS011;10161;41.188;-8.642;2023-07-31T03:52:24;2.73;;;2.40;;
20000;SDS011;10161;41.188;-8.642;2023-07-31T03:54:52;2.90;;;2.40;;
20000;SDS011;10161;41.188;-8.642;2023-07-31T03:57:19;2.50;;;2.20;;
20000;SDS011;10161;41.188;-8.642;2023-07-31T03:59:45;3.00;;;2.20;;
20000;SDS011;10161;41.188;-8.642;2023-07-31T04:02:14;3.97;;;2.17;;
20000;SDS011;10161;41.188;-8.642;2023-07-31T04:04:41;3.73;;;2.30;;
20000;SDS011;10161;41.188;-8.642;2023-07-31T04:07:08;3.90;;;2.50;;
20000;SDS011;10161;41.188;-8.642;2023-07-31T04:09:35;2.40;;;2.17;;
20000;SDS011;10161;41.188;-8.642;2023-07-31T04:12:02;2.70;;;2.30;;
20000;SDS011;10161;41.188;-8.642;2023-07-31T04:14:30;3.90;;;2.53;;
20000;SDS011;10161;41.188;-8.642;2023-07-31T04:16:57;4.97;;;2.60;;
20000;SDS011;10161;41.188;-8.642;2023-07-31T04:19:26;2.60;;;2.40;;
20000;SDS011;10161;41.188;-8.642;2023-07-31T04:21:53;4.13;;;2.70;;
20000;SDS011;10161;41.188;-8.642;2023-07-31T04:24:20;5.43;;;3.13;;
20000;SDS011;10161;41.188;-8.642;2023-07-31T04:26:49;2.80;;;2.60;;
20000;SDS011;10161;41.188;-8.642;2023-07-31T04:29:16;3.03;;;2.73;;
20000;SDS011;10161;41.188;-8.642;2023-07-31T04:31:43;3.80;;;2.80;;
20000;SDS011;10161;41.188;-8.642;2023-07-31T04:34:10;3.00;;;2.70;;
20000;SDS011;10161;41.188;-8.642;2023-07-31T04:36:39;3.80;;;2.90;;
20000;SDS011;10161;41.188;-8.642;2023-07-31T04:39:06;3.30;;;3.00;;
20000;SDS011;10161;41.188;-8.642;2023-07-31T04:41:33;4.67;;;3.03;;
20000;SDS011;10161;41.188;-8.642;2023-07-31T04:44:01;3.60;;;2.80;;
20000;SDS011;10161;41.188;-8.642;2023-07-31T04:46:28;3.63;;;3.20;;
20000;SDS011;10161;41.188;-8.642;2023-07-31T04:48:56;5.00;;;3.20;;
20000;SDS011;10161;41.188;-8.642;2023-07-31T04:51:24;4.60;;;2.80;;
20000;SDS011;10161;41.188;-8.642;2023-07-31T04:53:53;3.30;;;2.77;;
20000;SDS011;10161;41.188;-8.642;2023-07-31T04:56:20;4.07;;;2.73;;
20000;SDS011;10161;41.188;-8.642;2023-07-31T04:58:47;3.87;;;3.10;;
20000;SDS011;10161;41.188;-8.642;2023-07-31T05:01:14;3.77;;;3.17;;
20000;SDS011;10161;41.188;-8.642;2023-07-31T05:03:42;4.50;;;3.07;;
20000;SDS011;10161;41.188;-8.642;2023-07-31T05:06:09;3.40;;;3.10;;
20000;SDS011;10161;41.188;-8.642;2023-07-31T05:08:36;4.00;;;3.00;;
20000;SDS011;10161;41.188;-8.642;2023-07-31T05:11:05;4.03;;;2.90;;
20000;SDS011;10161;41.188;-8.642;2023-07-31T05:13:32;4.43;;;3.67;;
20000;SDS011;10161;41.188;-8.642;2023-07-31T05:16:00;3.90;;;3.00;;
20000;SDS011;10161;41.188;-8.642;2023-07-31T05:18:26;3.50;;;3.20;;
20000;SDS011;10161;41.188;-8.642;2023-07-31T05:20:53;4.03;;;3.20;;
20000;SDS011;10161;41.188;-8.642;2023-07-31T05:23:20;5.50;;;3.40;;
20000;SDS011;10161;41.188;-8.642;2023-07-31T05:25:48;3.20;;;2.90;;
20000;SDS011;10161;41.188;-8.642;2023-07-31T05:28:16;3.77;;;3.47;;
20000;SDS011;10161;41.188;-8.642;2023-07-31T05:30:43;4.83;;;3.60;;
20000;SDS011;10161;41.188;-8.642;2023-07-31T05:33:10;3.83;;;3.10;;
20000;SDS011;10161;41.188;-8.642;2023-07-31T05:35:37;3.60;;;3.30;;
20000;SDS011;10161;41.188;-8.642;2023-07-31T05:38:04;3.93;;;3.50;;
20000;SDS011;10161;41.188;-8.642;2023-07-31T05:40:32;3.53;;;3.23;;
20000;SDS011;10161;41.188;-8.642;2023-07-31T05:42:59;3.97;;;3.60;;
20000;SDS011;10161;41.188;-8.642;2023-07-31T05:45:27;3.60;;;3.30;;
20000;SDS011;10161;41.188;-8.642;2023-07-31T05:47:54;4.77;;;3.80;;
20000;SDS011;10161;41.188;-8.642;2023-07-31T05:50:21;3.40;;;3.13;;
20000;SDS011;10161;41.188;-8.642;2023-07-31T05:52:48;3.63;;;3.20;;
20000;SDS011;10161;41.188;-8.642;2023-07-31T05:55:15;4.17;;;3.83;;
20000;SDS011;10161;41.188;-8.642;2023-07-31T05:57:43;4.03;;;3.70;;
20000;SDS011;10161;41.188;-8.642;2023-07-31T06:00:11;4.33;;;3.53;;
20000;SDS011;10161;41.188;-8.642;2023-07-31T06:02:41;5.20;;;4.37;;
20000;SDS011;10161;41.188;-8.642;2023-07-31T06:05:08;4.77;;;4.37;;
20000;SDS011;10161;41.188;-8.642;2023-07-31T06:07:35;4.47;;;4.07;;
20000;SDS011;10161;41.188;-8.642;2023-07-31T06:10:02;7.17;;;3.90;;
20000;SDS011;10161;41.188;-8.642;2023-07-31T06:12:31;5.20;;;4.47;;
20000;SDS011;10161;41.188;-8.642;2023-07-31T06:14:58;5.93;;;4.47;;
20000;SDS011;10161;41.188;-8.642;2023-07-31T06:17:25;5.80;;;4.40;;
20000;SDS011;10161;41.188;-8.642;2023-07-31T06:19:54;4.90;;;4.40;;
20000;SDS011;10161;41.188;-8.642;2023-07-31T06:22:21;4.77;;;4.37;;
20000;SDS011;10161;41.188;-8.642;2023-07-31T06:24:48;6.97;;;4.63;;
20000;SDS011;10161;41.188;-8.642;2023-07-31T06:27:15;4.90;;;4.33;;
20000;SDS011;10161;41.188;-8.642;2023-07-31T06:29:42;5.67;;;4.53;;
20000;SDS011;10161;41.188;-8.642;2023-07-31T06:32:10;5.20;;;4.73;;
20000;SDS011;10161;41.188;-8.642;2023-07-31T06:34:37;7.33;;;4.57;;
20000;SDS011;10161;41.188;-8.642;2023-07-31T06:37:05;7.33;;;5.43;;
20000;SDS011;10161;41.188;-8.642;2023-07-31T06:39:32;5.67;;;5.13;;
20000;SDS011;10161;41.188;-8.642;2023-07-31T06:41:59;6.33;;;4.70;;
20000;SDS011;10161;41.188;-8.642;2023-07-31T06:44:26;5.07;;;4.57;;
20000;SDS011;10161;41.188;-8.642;2023-07-31T06:46:54;5.73;;;5.20;;
20000;SDS011;10161;41.188;-8.642;2023-07-31T06:49:21;5.37;;;4.87;;
20000;SDS011;10161;41.188;-8.642;2023-07-31T06:51:48;7.00;;;5.20;;
20000;SDS011;10161;41.188;-8.642;2023-07-31T06:54:17;6.13;;;5.53;;
20000;SDS011;10161;41.188;-8.642;2023-07-31T06:56:44;5.77;;;5.17;;
20000;SDS011;10161;41.188;-8.642;2023-07-31T06:59:11;5.53;;;4.90;;
20000;SDS011;10161;41.188;-8.642;2023-07-31T07:01:38;4.97;;;4.47;;
20000;SDS011;10161;41.188;-8.642;2023-07-31T07:04:05;6.47;;;5.40;;
20000;SDS011;10161;41.188;-8.642;2023-07-31T07:06:32;6.27;;;5.40;;
20000;SDS011;10161;41.188;-8.642;2023-07-31T07:08:59;6.40;;;5.80;;
20000;SDS011;10161;41.188;-8.642;2023-07-31T07:11:28;6.10;;;5.50;;
20000;SDS011;10161;41.188;-8.642;2023-07-31T07:13:55;6.87;;;5.53;;
20000;SDS011;10161;41.188;-8.642;2023-07-31T07:16:22;6.50;;;5.70;;
20000;SDS011;10161;41.188;-8.642;2023-07-31T07:18:49;7.47;;;6.33;;
20000;SDS011;10161;41.188;-8.642;2023-07-31T07:21:16;7.77;;;6.53;;
20000;SDS011;10161;41.188;-8.642;2023-07-31T07:23:43;7.03;;;6.37;;
20000;SDS011;10161;41.188;-8.642;2023-07-31T07:26:10;7.07;;;6.37;;
20000;SDS011;10161;41.188;-8.642;2023-07-31T07:28:39;7.07;;;6.37;;
20000;SDS011;10161;41.188;-8.642;2023-07-31T07:31:06;6.90;;;6.23;;
20000;SDS011;10161;41.188;-8.642;2023-07-31T07:33:33;8.30;;;7.50;;
20000;SDS011;10161;41.188;-8.642;2023-07-31T07:36:00;8.00;;;6.83;;
20000;SDS011;10161;41.188;-8.642;2023-07-31T07:38:28;7.80;;;7.00;;
20000;SDS011;10161;41.188;-8.642;2023-07-31T07:40:55;9.20;;;7.37;;
20000;SDS011;10161;41.188;-8.642;2023-07-31T07:43:22;8.27;;;7.47;;
20000;SDS011;10161;41.188;-8.642;2023-07-31T07:45:51;8.07;;;7.27;;
20000;SDS011;10161;41.188;-8.642;2023-07-31T07:48:18;8.90;;;7.03;;
20000;SDS011;10161;41.188;-8.642;2023-07-31T07:50:45;7.73;;;6.90;;
20000;SDS011;10161;41.188;-8.642;2023-07-31T07:53:12;7.53;;;6.73;;
20000;SDS011;10161;41.188;-8.642;2023-07-31T07:55:39;7.77;;;6.97;;
20000;SDS011;10161;41.188;-8.642;2023-07-31T07:58:07;8.00;;;6.53;;
20000;SDS011;10161;41.188;-8.642;2023-07-31T08:00:34;7.20;;;6.40;;
20000;SDS011;10161;41.188;-8.642;2023-07-31T08:03:03;7.03;;;6.33;;
20000;SDS011;10161;41.188;-8.642;2023-07-31T08:05:30;6.43;;;5.77;;
20000;SDS011;10161;41.188;-8.642;2023-07-31T08:07:59;9.70;;;7.50;;
20000;SDS011;10161;41.188;-8.642;2023-07-31T08:10:26;7.50;;;6.57;;
20000;SDS011;10161;41.188;-8.642;2023-07-31T08:12:53;8.10;;;6.30;;
20000;SDS011;10161;41.188;-8.642;2023-07-31T08:15:20;7.10;;;6.40;;
20000;SDS011;10161;41.188;-8.642;2023-07-31T08:17:48;7.10;;;6.40;;
20000;SDS011;10161;41.188;-8.642;2023-07-31T08:20:18;6.40;;;5.80;;
20000;SDS011;10161;41.188;-8.642;2023-07-31T08:22:45;6.53;;;5.80;;
20000;SDS011;10161;41.188;-8.642;2023-07-31T08:25:11;8.07;;;6.53;;
20000;SDS011;10161;41.188;-8.642;2023-07-31T08:27:42;7.97;;;6.53;;
20000;SDS011;10161;41.188;-8.642;2023-07-31T08:30:11;7.13;;;6.43;;
20000;SDS011;10161;41.188;-8.642;2023-07-31T08:32:38;8.33;;;7.10;;
20000;SDS011;10161;41.188;-8.642;2023-07-31T08:35:06;7.80;;;7.00;;
20000;SDS011;10161;41.188;-8.642;2023-07-31T08:37:35;6.93;;;6.17;;
20000;SDS011;10161;41.188;-8.642;2023-07-31T08:40:02;6.23;;;5.63;;
20000;SDS011;10161;41.188;-8.642;2023-07-31T08:42:31;7.83;;;6.27;;
20000;SDS011;10161;41.188;-8.642;2023-07-31T08:44:58;8.83;;;6.00;;
20000;SDS011;10161;41.188;-8.642;2023-07-31T08:47:26;6.87;;;6.17;;
20000;SDS011;10161;41.188;-8.642;2023-07-31T08:49:53;7.93;;;6.10;;
20000;SDS011;10161;41.188;-8.642;2023-07-31T08:52:21;10.17;;;7.20;;
20000;SDS011;10161;41.188;-8.642;2023-07-31T08:54:50;6.37;;;5.77;;
20000;SDS011;10161;41.188;-8.642;2023-07-31T08:57:17;7.70;;;6.90;;
20000;SDS011;10161;41.188;-8.642;2023-07-31T08:59:44;7.63;;;6.13;;
20000;SDS011;10161;41.188;-8.642;2023-07-31T09:02:12;7.30;;;6.00;;
20000;SDS011;10161;41.188;-8.642;2023-07-31T09:04:40;8.50;;;6.57;;
20000;SDS011;10161;41.188;-8.642;2023-07-31T09:07:07;10.23;;;6.47;;
20000;SDS011;10161;41.188;-8.642;2023-07-31T09:09:35;10.83;;;7.70;;
20000;SDS011;10161;41.188;-8.642;2023-07-31T09:12:04;6.80;;;6.13;;
20000;SDS011;10161;41.188;-8.642;2023-07-31T09:14:32;6.70;;;5.90;;
20000;SDS011;10161;41.188;-8.642;2023-07-31T09:17:01;5.77;;;5.00;;
20000;SDS011;10161;41.188;-8.642;2023-07-31T09:19:29;6.23;;;4.87;;
20000;SDS011;10161;41.188;-8.642;2023-07-31T09:21:59;8.27;;;5.10;;
20000;SDS011;10161;41.188;-8.642;2023-07-31T09:24:26;8.50;;;5.30;;
20000;SDS011;10161;41.188;-8.642;2023-07-31T09:26:55;9.00;;;5.40;;
20000;SDS011;10161;41.188;-8.642;2023-07-31T09:29:26;6.17;;;4.90;;
20000;SDS011;10161;41.188;-8.642;2023-07-31T09:31:54;6.57;;;5.60;;
20000;SDS011;10161;41.188;-8.642;2023-07-31T09:34:28;5.03;;;4.43;;
20000;SDS011;10161;41.188;-8.642;2023-07-31T09:36:57;9.90;;;5.30;;
20000;SDS011;10161;41.188;-8.642;2023-07-31T09:39:24;6.77;;;5.00;;
20000;SDS011;10161;41.188;-8.642;2023-07-31T09:41:53;6.40;;;5.00;;
20000;SDS011;10161;41.188;-8.642;2023-07-31T09:44:21;5.80;;;5.30;;
20000;SDS011;10161;41.188;-8.642;2023-07-31T09:46:50;5.00;;;4.50;;
20000;SDS011;10161;41.188;-8.642;2023-07-31T09:49:17;6.43;;;4.77;;
20000;SDS011;10161;41.188;-8.642;2023-07-31T09:51:45;5.90;;;4.83;;
20000;SDS011;10161;41.188;-8.642;2023-07-31T09:54:12;5.57;;;4.20;;
20000;SDS011;10161;41.188;-8.642;2023-07-31T09:56:41;4.50;;;3.87;;
20000;SDS011;10161;41.188;-8.642;2023-07-31T09:59:10;3.73;;;3.33;;
20000;SDS011;10161;41.188;-8.642;2023-07-31T10:01:38;3.37;;;3.07;;
20000;SDS011;10161;41.188;-8.642;2023-07-31T10:04:08;4.67;;;3.10;;
20000;SDS011;10161;41.188;-8.642;2023-07-31T10:06:36;4.70;;;3.47;;
20000;SDS011;10161;41.188;-8.642;2023-07-31T10:09:05;4.20;;;3.10;;
20000;SDS011;10161;41.188;-8.642;2023-07-31T10:11:34;4.50;;;3.00;;
20000;SDS011;10161;41.188;-8.642;2023-07-31T10:14:04;3.20;;;2.90;;
20000;SDS011;10161;41.188;-8.642;2023-07-31T10:16:32;2.70;;;2.50;;
20000;SDS011;10161;41.188;-8.642;2023-07-31T10:18:59;3.30;;;3.00;;
20000;SDS011;10161;41.188;-8.642;2023-07-31T10:21:28;4.40;;;2.83;;
20000;SDS011;10161;41.188;-8.642;2023-07-31T10:23:56;3.67;;;3.10;;
20000;SDS011;10161;41.188;-8.642;2023-07-31T10:26:23;3.10;;;2.53;;
20000;SDS011;10161;41.188;-8.642;2023-07-31T10:28:51;2.90;;;2.60;;
20000;SDS011;10161;41.188;-8.642;2023-07-31T10:31:19;3.43;;;2.80;;
20000;SDS011;10161;41.188;-8.642;2023-07-31T10:33:47;2.77;;;2.50;;
20000;SDS011;10161;41.188;-8.642;2023-07-31T10:36:14;2.93;;;2.60;;
20000;SDS011;10161;41.188;-8.642;2023-07-31T10:38:45;3.03;;;2.30;;
20000;SDS011;10161;41.188;-8.642;2023-07-31T10:41:13;3.60;;;2.40;;
20000;SDS011;10161;41.188;-8.642;2023-07-31T10:43:40;2.80;;;2.60;;
20000;SDS011;10161;41.188;-8.642;2023-07-31T10:46:07;2.80;;;2.60;;
20000;SDS011;10161;41.188;-8.642;2023-07-31T10:48:35;3.97;;;3.03;;
20000;SDS011;10161;41.188;-8.642;2023-07-31T10:51:06;4.20;;;3.20;;
20000;SDS011;10161;41.188;-8.642;2023-07-31T10:53:34;2.60;;;2.40;;
20000;SDS011;10161;41.188;-8.642;2023-07-31T10:56:03;3.30;;;2.67;;
20000;SDS011;10161;41.188;-8.642;2023-07-31T10:58:31;2.60;;;2.40;;
20000;SDS011;10161;41.188;-8.642;2023-07-31T11:00:59;2.80;;;2.33;;
20000;SDS011;10161;41.188;-8.642;2023-07-31T11:03:40;2.30;;;2.10;;
20000;SDS011;10161;41.188;-8.642;2023-07-31T11:06:07;1.97;;;1.87;;
20000;SDS011;10161;41.188;-8.642;2023-07-31T11:08:35;2.27;;;2.07;;
20000;SDS011;10161;41.188;-8.642;2023-07-31T11:11:12;1.90;;;1.80;;
20000;SDS011;10161;41.188;-8.642;2023-07-31T11:13:41;2.27;;;2.07;;
20000;SDS011;10161;41.188;-8.642;2023-07-31T11:16:10;2.67;;;1.90;;
20000;SDS011;10161;41.188;-8.642;2023-07-31T11:18:38;2.23;;;2.00;;
20000;SDS011;10161;41.188;-8.642;2023-07-31T11:21:07;2.90;;;2.00;;
20000;SDS011;10161;41.188;-8.642;2023-07-31T11:23:36;4.70;;;1.83;;
20000;SDS011;10161;41.188;-8.642;2023-07-31T11:26:04;2.00;;;1.90;;
20000;SDS011;10161;41.188;-8.642;2023-07-31T11:28:33;2.27;;;2.07;;
20000;SDS011;10161;41.188;-8.642;2023-07-31T11:31:01;2.10;;;1.90;;
20000;SDS011;10161;41.188;-8.642;2023-07-31T11:33:29;2.03;;;1.83;;
20000;SDS011;10161;41.188;-8.642;2023-07-31T11:35:56;2.33;;;1.70;;
20000;SDS011;10161;41.188;-8.642;2023-07-31T11:38:23;1.93;;;1.83;;
20000;SDS011;10161;41.188;-8.642;2023-07-31T11:40:51;2.23;;;1.90;;
20000;SDS011;10161;41.188;-8.642;2023-07-31T11:43:18;1.80;;;1.70;;
20000;SDS011;10161;41.188;-8.642;2023-07-31T11:45:58;2.50;;;2.03;;
20000;SDS011;10161;41.188;-8.642;2023-07-31T11:48:28;1.90;;;1.70;;
20000;SDS011;10161;41.188;-8.642;2023-07-31T11:50:57;1.93;;;1.83;;
20000;SDS011;10161;41.188;-8.642;2023-07-31T11:53:25;2.00;;;1.80;;
20000;SDS011;10161;41.188;-8.642;2023-07-31T11:55:53;2.30;;;2.10;;
20000;SDS011;10161;41.188;-8.642;2023-07-31T11:58:20;1.90;;;1.80;;
20000;SDS011;10161;41.188;-8.642;2023-07-31T12:00:48;1.97;;;1.80;;
20000;SDS011;10161;41.188;-8.642;2023-07-31T12:03:17;1.73;;;1.60;;
20000;SDS011;10161;41.188;-8.642;2023-07-31T12:05:46;1.80;;;1.70;;
20000;SDS011;10161;41.188;-8.642;2023-07-31T12:08:13;1.70;;;1.60;;
20000;SDS011;10161;41.188;-8.642;2023-07-31T12:10:41;1.80;;;1.70;;
20000;SDS011;10161;41.188;-8.642;2023-07-31T12:13:10;2.60;;;1.80;;
20000;SDS011;10161;41.188;-8.642;2023-07-31T12:15:39;1.67;;;1.57;;
20000;SDS011;10161;41.188;-8.642;2023-07-31T12:18:07;2.30;;;1.70;;
20000;SDS011;10161;41.188;-8.642;2023-07-31T12:20:39;1.70;;;1.60;;
20000;SDS011;10161;41.188;-8.642;2023-07-31T12:23:12;1.53;;;1.43;;
20000;SDS011;10161;41.188;-8.642;2023-07-31T12:25:40;4.37;;;2.47;;
20000;SDS011;10161;41.188;-8.642;2023-07-31T12:28:07;1.60;;;1.50;;
20000;SDS011;10161;41.188;-8.642;2023-07-31T12:30:37;1.90;;;1.80;;
20000;SDS011;10161;41.188;-8.642;2023-07-31T12:33:05;1.70;;;1.60;;
20000;SDS011;10161;41.188;-8.642;2023-07-31T12:35:43;1.60;;;1.50;;
20000;SDS011;10161;41.188;-8.642;2023-07-31T12:38:11;2.40;;;1.77;;
20000;SDS011;10161;41.188;-8.642;2023-07-31T12:40:39;1.50;;;1.40;;
20000;SDS011;10161;41.188;-8.642;2023-07-31T12:43:07;1.50;;;1.40;;
20000;SDS011;10161;41.188;-8.642;2023-07-31T12:45:34;2.33;;;1.60;;
20000;SDS011;10161;41.188;-8.642;2023-07-31T12:48:02;1.60;;;1.50;;
20000;SDS011;10161;41.188;-8.642;2023-07-31T12:50:29;2.40;;;1.73;;
20000;SDS011;10161;41.188;-8.642;2023-07-31T12:52:57;2.60;;;1.50;;
20000;SDS011;10161;41.188;-8.642;2023-07-31T12:55:24;1.87;;;1.77;;
20000;SDS011;10161;41.188;-8.642;2023-07-31T12:57:51;1.60;;;1.50;;
20000;SDS011;10161;41.188;-8.642;2023-07-31T13:00:18;1.53;;;1.43;;
20000;SDS011;10161;41.188;-8.642;2023-07-31T13:02:45;1.60;;;1.50;;
20000;SDS011;10161;41.188;-8.642;2023-07-31T13:05:12;1.53;;;1.43;;
20000;SDS011;10161;41.188;-8.642;2023-07-31T13:07:39;2.37;;;1.90;;
20000;SDS011;10161;41.188;-8.642;2023-07-31T13:10:08;1.50;;;1.40;;
20000;SDS011;10161;41.188;-8.642;2023-07-31T13:12:35;1.70;;;1.60;;
20000;SDS011;10161;41.188;-8.642;2023-07-31T13:15:03;3.60;;;1.90;;
20000;SDS011;10161;41.188;-8.642;2023-07-31T13:17:30;2.40;;;1.73;;
20000;SDS011;10161;41.188;-8.642;2023-07-31T13:19:57;1.67;;;1.57;;
20000;SDS011;10161;41.188;-8.642;2023-07-31T13:22:24;1.50;;;1.40;;
20000;SDS011;10161;41.188;-8.642;2023-07-31T13:24:51;1.67;;;1.57;;
20000;SDS011;10161;41.188;-8.642;2023-07-31T13:27:20;1.67;;;1.57;;
20000;SDS011;10161;41.188;-8.642;2023-07-31T13:29:47;1.60;;;1.50;;
20000;SDS011;10161;41.188;-8.642;2023-07-31T13:32:15;2.07;;;1.87;;
20000;SDS011;10161;41.188;-8.642;2023-07-31T13:34:42;1.40;;;1.30;;
20000;SDS011;10161;41.188;-8.642;2023-07-31T13:37:09;1.57;;;1.43;;
20000;SDS011;10161;41.188;-8.642;2023-07-31T13:39:36;1.70;;;1.60;;
20000;SDS011;10161;41.188;-8.642;2023-07-31T13:42:03;2.03;;;1.90;;
20000;SDS011;10161;41.188;-8.642;2023-07-31T13:44:34;2.10;;;1.67;;
20000;SDS011;10161;41.188;-8.642;2023-07-31T13:47:01;1.63;;;1.53;;
20000;SDS011;10161;41.188;-8.642;2023-07-31T13:49:29;1.83;;;1.73;;
20000;SDS011;10161;41.188;-8.642;2023-07-31T13:51:56;1.57;;;1.47;;
20000;SDS011;10161;41.188;-8.642;2023-07-31T13:54:24;2.10;;;1.90;;
20000;SDS011;10161;41.188;-8.642;2023-07-31T13:56:51;1.60;;;1.50;;
20000;SDS011;10161;41.188;-8.642;2023-07-31T13:59:18;1.73;;;1.63;;
20000;SDS011;10161;41.188;-8.642;2023-07-31T14:01:46;2.13;;;1.53;;
20000;SDS011;10161;41.188;-8.642;2023-07-31T14:04:14;2.40;;;1.63;;
20000;SDS011;10161;41.188;-8.642;2023-07-31T14:06:41;1.73;;;1.63;;
20000;SDS011;10161;41.188;-8.642;2023-07-31T14:09:08;1.67;;;1.57;;
20000;SDS011;10161;41.188;-8.642;2023-07-31T14:11:35;1.80;;;1.70;;
20000;SDS011;10161;41.188;-8.642;2023-07-31T14:14:02;1.87;;;1.77;;
20000;SDS011;10161;41.188;-8.642;2023-07-31T14:16:29;1.70;;;1.60;;
20000;SDS011;10161;41.188;-8.642;2023-07-31T14:18:58;2.40;;;1.90;;
20000;SDS011;10161;41.188;-8.642;2023-07-31T14:21:25;2.47;;;1.60;;
20000;SDS011;10161;41.188;-8.642;2023-07-31T14:23:52;2.70;;;1.60;;
20000;SDS011;10161;41.188;-8.642;2023-07-31T14:26:19;2.33;;;1.90;;
20000;SDS011;10161;41.188;-8.642;2023-07-31T14:28:46;1.80;;;1.57;;
20000;SDS011;10161;41.188;-8.642;2023-07-31T14:31:13;1.73;;;1.63;;
20000;SDS011;10161;41.188;-8.642;2023-07-31T14:33:41;1.83;;;1.53;;
20000;SDS011;10161;41.188;-8.642;2023-07-31T14:36:09;1.83;;;1.73;;